Time;durP1;ratioP1;P1;durP2;ratioP2;P2;SDS_P1;SDS_P2;PMS_P1;PMS_P2;Temp;Humidity;BMP_temperature;BMP_pressure;BME280_temperature;BME280_humidity;BME280_pressure;Samples;Min_cycle;Max_cycle;Signal;HPM_P1;HPM_P2
2022/12/23 00:00:41;;;;;;;37.20;14.00;;;10.60;99.90;;;;;;5107505;28;20231;-69
2022/12/23 00:03:08;;;;;;;31.00;12.70;;;10.70;99.90;;;;;;5110511;28;20302;-69
2022/12/23 00:05:38;;;;;;;32.23;13.23;;;10.60;99.90;;;;;;5108899;28;20227;-69
2022/12/23 00:08:07;;;;;;;35.30;14.20;;;10.70;99.90;;;;;;5111940;28;20257;-69
2022/12/23 00:10:37;;;;;;;37.87;14.60;;;10.70;99.90;;;;;;5111196;28;20636;-69
2022/12/23 00:15:49;;;;;;;39.67;14.73;;;10.60;99.90;;;;;;5111031;28;20253;-69
2022/12/23 00:18:16;;;;;;;42.97;15.17;;;10.60;99.90;;;;;;5111116;28;20205;-69
2022/12/23 00:20:42;;;;;;;36.80;14.47;;;10.60;99.90;;;;;;5112163;28;20200;-68
2022/12/23 00:23:09;;;;;;;40.73;14.37;;;10.60;99.90;;;;;;5107192;28;20724;-68
2022/12/23 00:25:40;;;;;;;43.80;15.13;;;10.60;99.90;;;;;;5109470;28;20253;-69
2022/12/23 00:28:15;;;;;;;36.67;14.07;;;10.60;99.90;;;;;;5110999;28;20218;-69
2022/12/23 00:30:51;;;;;;;35.40;13.77;;;10.60;99.90;;;;;;5086436;28;20202;-69
2022/12/23 00:33:20;;;;;;;41.60;14.53;;;10.60;99.90;;;;;;5105994;28;20198;-69
2022/12/23 00:35:48;;;;;;;35.67;14.37;;;10.60;99.90;;;;;;5111598;28;20234;-69
2022/12/23 00:38:16;;;;;;;38.20;13.90;;;10.60;99.90;;;;;;5111342;28;20728;-69
2022/12/23 00:43:28;;;;;;;46.93;15.17;;;10.60;99.90;;;;;;5109366;28;20226;-70
2022/12/23 00:45:55;;;;;;;41.13;14.47;;;10.60;99.90;;;;;;5110257;28;20231;-70
2022/12/23 00:51:07;;;;;;;47.87;16.37;;;10.60;99.90;;;;;;5109867;28;20226;-69
2022/12/23 00:53:33;;;;;;;42.37;15.33;;;10.60;99.90;;;;;;5110434;28;20294;-68
2022/12/23 00:56:00;;;;;;;42.20;15.47;;;10.60;99.90;;;;;;5089491;28;20200;-68
2022/12/23 00:58:27;;;;;;;46.03;16.23;;;10.60;99.90;;;;;;5110552;28;20195;-68
2022/12/23 01:06:24;;;;;;;50.97;17.40;;;10.60;99.90;;;;;;5108887;28;20286;-69
2022/12/23 01:08:51;;;;;;;44.97;16.07;;;10.60;99.90;;;;;;5108803;28;20221;-69
2022/12/23 01:11:17;;;;;;;51.60;17.53;;;10.60;99.90;;;;;;5110221;28;20226;-69
2022/12/23 01:13:44;;;;;;;50.67;17.73;;;10.60;99.90;;;;;;5110770;28;20234;-69
2022/12/23 01:16:11;;;;;;;48.50;17.67;;;10.60;99.90;;;;;;5111024;28;20314;-69
2022/12/23 01:18:43;;;;;;;51.07;17.67;;;10.60;99.90;;;;;;5092955;28;20195;-68
2022/12/23 01:21:10;;;;;;;47.93;17.60;;;10.60;99.90;;;;;;5093066;28;20915;-69
2022/12/23 01:23:37;;;;;;;61.23;18.00;;;10.60;99.90;;;;;;5109651;28;20754;-69
2022/12/23 01:26:06;;;;;;;50.50;18.00;;;10.60;99.90;;;;;;5110655;28;20205;-70
2022/12/23 01:28:34;;;;;;;47.43;19.37;;;10.60;99.90;;;;;;5109808;28;20235;-69
2022/12/23 01:31:03;;;;;;;52.10;16.97;;;10.50;99.90;;;;;;5110483;28;20302;-69
2022/12/23 01:33:30;;;;;;;45.73;18.30;;;10.50;99.90;;;;;;5109918;28;20213;-69
2022/12/23 01:36:07;;;;;;;52.13;17.27;;;10.50;99.90;;;;;;5092226;28;20230;-69
2022/12/23 01:38:34;;;;;;;51.87;18.00;;;10.50;99.90;;;;;;5109921;28;20297;-69
2022/12/23 01:41:01;;;;;;;45.20;17.53;;;10.60;99.90;;;;;;5109565;28;20593;-70
2022/12/23 01:43:47;;;;;;;53.80;18.00;;;10.50;99.90;;;;;;5109364;28;20409;-69
2022/12/23 01:46:14;;;;;;;45.97;18.50;;;10.50;99.90;;;;;;5108694;28;20215;-69
2022/12/23 01:48:47;;;;;;;51.93;18.17;;;10.50;99.90;;;;;;5110073;28;20597;-69
2022/12/23 01:51:25;;;;;;;53.10;17.77;;;10.40;99.90;;;;;;5110246;28;20249;-70
2022/12/23 01:53:58;;;;;;;49.40;16.50;;;10.40;99.90;;;;;;5107404;28;20315;-70
2022/12/23 01:56:33;;;;;;;55.80;17.87;;;10.40;99.90;;;;;;5108597;28;20214;-70
2022/12/23 01:59:07;;;;;;;46.73;16.57;;;10.40;99.90;;;;;;5084280;28;20244;-70
2022/12/23 02:04:23;;;;;;;53.27;17.13;;;10.40;99.90;;;;;;5109438;28;20258;-69
2022/12/23 02:09:38;;;;;;;51.60;17.37;;;10.40;99.90;;;;;;5107484;28;20207;-69
2022/12/23 02:12:43;;;;;;;49.67;17.60;;;10.30;99.90;;;;;;5105923;28;20195;-69
2022/12/23 02:18:17;;;;;;;49.00;16.90;;;10.40;99.90;;;;;;5105774;28;20257;-70
2022/12/23 02:21:10;;;;;;;46.37;16.57;;;10.40;99.90;;;;;;5109178;28;20199;-69
2022/12/23 02:24:00;;;;;;;50.20;17.20;;;10.30;99.90;;;;;;5106218;28;20590;-69
2022/12/23 02:26:59;;;;;;;46.33;16.50;;;10.30;99.90;;;;;;5108963;28;20215;-70
2022/12/23 02:29:44;;;;;;;46.07;16.87;;;10.30;99.90;;;;;;5107737;28;20203;-70
2022/12/23 02:32:22;;;;;;;50.63;17.27;;;10.20;99.90;;;;;;5106032;28;20293;-69
2022/12/23 02:34:58;;;;;;;44.60;15.87;;;10.20;99.90;;;;;;5109825;28;20558;-70
2022/12/23 02:37:59;;;;;;;41.43;16.33;;;10.20;99.90;;;;;;5108616;28;20719;-70
2022/12/23 02:41:01;;;;;;;41.97;16.03;;;10.20;99.90;;;;;;5085866;28;20291;-70
2022/12/23 02:43:38;;;;;;;37.77;16.20;;;10.10;99.90;;;;;;5095026;28;20199;-70
2022/12/23 02:46:35;;;;;;;38.50;16.03;;;10.10;99.90;;;;;;5109876;28;20750;-70
2022/12/23 02:49:25;;;;;;;40.20;16.53;;;10.10;99.90;;;;;;5082851;28;20224;-70
2022/12/23 02:51:54;;;;;;;34.87;15.97;;;10.00;99.90;;;;;;5107975;28;20206;-70
2022/12/23 02:54:34;;;;;;;35.83;16.07;;;10.00;99.90;;;;;;5105709;28;20227;-70
2022/12/23 02:57:04;;;;;;;41.67;16.53;;;10.00;99.90;;;;;;5109469;28;20227;-69
2022/12/23 02:59:45;;;;;;;40.60;18.03;;;10.00;99.90;;;;;;5109436;28;20290;-70
2022/12/23 03:02:12;;;;;;;36.40;16.53;;;10.00;99.90;;;;;;5106226;28;22267;-68
2022/12/23 03:04:40;;;;;;;42.40;19.27;;;10.00;99.90;;;;;;5109476;28;20226;-69
2022/12/23 03:07:20;;;;;;;42.10;19.13;;;10.00;99.90;;;;;;5104750;28;20219;-69
2022/12/23 03:10:07;;;;;;;38.03;17.20;;;10.00;99.90;;;;;;5109575;28;20203;-69
2022/12/23 03:12:57;;;;;;;42.87;18.23;;;10.00;99.90;;;;;;5112456;28;20242;-69
2022/12/23 03:15:39;;;;;;;32.10;15.77;;;10.00;99.90;;;;;;5111968;28;20234;-69
2022/12/23 03:18:34;;;;;;;35.50;17.03;;;9.90;99.90;;;;;;5084675;28;20754;-70
2022/12/23 03:21:16;;;;;;;43.20;17.87;;;9.90;99.90;;;;;;5111691;28;20600;-70
2022/12/23 03:23:52;;;;;;;38.97;18.50;;;9.80;99.90;;;;;;5104689;28;20592;-70
2022/12/23 03:26:37;;;;;;;38.57;18.00;;;9.80;99.90;;;;;;5110989;28;20207;-70
2022/12/23 03:29:16;;;;;;;42.30;17.50;;;9.80;99.90;;;;;;5107691;28;20284;-69
2022/12/23 03:31:44;;;;;;;44.17;19.13;;;9.80;99.90;;;;;;5113118;28;20223;-69
2022/12/23 03:34:18;;;;;;;42.50;18.77;;;9.80;99.90;;;;;;5113198;28;20292;-69
2022/12/23 03:36:49;;;;;;;49.63;20.30;;;9.80;99.90;;;;;;5110214;28;20647;-69
2022/12/23 03:39:20;;;;;;;35.87;17.00;;;9.80;99.90;;;;;;5112388;28;20246;-69
2022/12/23 03:41:52;;;;;;;41.63;19.50;;;9.80;99.90;;;;;;5094377;28;20211;-69
2022/12/23 03:44:34;;;;;;;43.70;19.33;;;9.80;99.90;;;;;;5110167;28;20227;-69
2022/12/23 03:47:08;;;;;;;45.50;20.53;;;9.80;99.90;;;;;;5111547;28;20747;-69
2022/12/23 03:49:43;;;;;;;44.87;20.07;;;9.80;99.90;;;;;;5085882;28;20234;-69
2022/12/23 03:52:14;;;;;;;46.30;21.63;;;9.80;99.90;;;;;;5086811;28;20203;-69
2022/12/23 03:55:00;;;;;;;45.73;20.90;;;9.80;99.90;;;;;;5072443;28;20294;-69
2022/12/23 03:58:09;;;;;;;48.33;22.03;;;9.80;99.90;;;;;;5091743;28;20207;-69
2022/12/23 04:00:43;;;;;;;52.37;22.30;;;9.80;99.90;;;;;;5090047;28;20653;-69
2022/12/23 04:03:42;;;;;;;46.33;22.13;;;9.80;99.90;;;;;;5093302;28;20253;-69
2022/12/23 04:06:11;;;;;;;53.03;22.63;;;9.80;99.90;;;;;;5043041;28;20200;-70
2022/12/23 04:08:40;;;;;;;59.33;24.33;;;9.80;99.90;;;;;;5090618;28;20204;-69
2022/12/23 04:11:07;;;;;;;53.47;23.47;;;9.80;99.90;;;;;;5070348;28;20299;-69
2022/12/23 04:13:34;;;;;;;62.57;26.67;;;9.80;99.90;;;;;;5091719;28;20743;-69
2022/12/23 04:16:01;;;;;;;60.70;26.53;;;9.80;99.90;;;;;;5091475;28;20406;-69
2022/12/23 04:18:28;;;;;;;58.67;24.23;;;9.80;99.90;;;;;;5090370;28;20214;-70
2022/12/23 04:20:55;;;;;;;59.27;25.43;;;9.80;99.90;;;;;;5078238;28;20269;-69
2022/12/23 04:23:22;;;;;;;66.50;26.73;;;9.80;99.90;;;;;;5091786;28;20283;-69
2022/12/23 04:25:49;;;;;;;60.83;26.63;;;9.80;99.90;;;;;;5090948;28;20363;-70
2022/12/23 04:28:17;;;;;;;68.23;27.20;;;9.80;99.90;;;;;;5067188;28;20716;-69
2022/12/23 04:30:43;;;;;;;71.37;29.17;;;9.80;99.90;;;;;;5091009;28;20249;-70
2022/12/23 04:33:11;;;;;;;78.80;30.30;;;9.80;99.90;;;;;;5091594;28;20553;-70
2022/12/23 04:35:38;;;;;;;74.73;30.47;;;9.80;99.90;;;;;;5068974;28;20695;-69
2022/12/23 04:38:05;;;;;;;74.27;29.77;;;9.80;99.90;;;;;;5090270;28;20648;-69
2022/12/23 04:40:32;;;;;;;81.60;30.20;;;9.80;99.90;;;;;;5072979;28;20264;-69
2022/12/23 04:42:58;;;;;;;82.73;30.40;;;9.70;99.90;;;;;;5091840;28;20227;-68
2022/12/23 04:45:25;;;;;;;67.77;27.67;;;9.80;99.90;;;;;;5088198;28;20311;-69
2022/12/23 04:47:53;;;;;;;81.27;29.53;;;9.70;99.90;;;;;;5087106;28;20216;-69
2022/12/23 04:50:20;;;;;;;76.33;27.03;;;9.70;99.90;;;;;;5085944;28;20253;-69
2022/12/23 04:52:46;;;;;;;81.63;29.47;;;9.70;99.90;;;;;;5110852;28;20796;-69
2022/12/23 04:55:13;;;;;;;77.63;27.17;;;9.60;99.90;;;;;;5110454;28;20289;-69
2022/12/23 04:57:40;;;;;;;85.33;28.33;;;9.60;99.90;;;;;;5110850;28;20294;-68
2022/12/23 05:00:07;;;;;;;83.27;28.10;;;9.60;99.90;;;;;;5106389;28;20199;-68
2022/12/23 05:02:34;;;;;;;86.93;30.07;;;9.60;99.90;;;;;;5109665;28;20831;-68
2022/12/23 05:05:01;;;;;;;97.00;29.57;;;9.60;99.90;;;;;;5110256;28;20223;-69
2022/12/23 05:07:28;;;;;;;82.23;27.23;;;9.60;99.90;;;;;;5110694;28;20663;-69
2022/12/23 05:10:00;;;;;;;83.47;24.77;;;9.60;99.90;;;;;;5110800;28;20278;-68
2022/12/23 05:12:28;;;;;;;84.37;26.03;;;9.60;99.90;;;;;;5109806;28;20206;-68
2022/12/23 05:14:55;;;;;;;78.13;22.70;;;9.50;99.90;;;;;;5109441;28;20199;-68
2022/12/23 05:17:22;;;;;;;78.07;23.77;;;9.50;99.90;;;;;;5108268;28;20249;-68
2022/12/23 05:19:49;;;;;;;74.27;22.60;;;9.50;99.90;;;;;;5092457;28;20576;-70
2022/12/23 05:22:15;;;;;;;74.20;22.97;;;9.50;99.90;;;;;;5110428;28;20225;-68
2022/12/23 05:24:42;;;;;;;66.60;21.17;;;9.40;99.90;;;;;;5091940;28;21055;-69
2022/12/23 05:27:09;;;;;;;75.10;22.60;;;9.50;99.90;;;;;;5110801;28;20203;-69
2022/12/23 05:29:35;;;;;;;80.33;22.93;;;9.40;99.90;;;;;;5109916;28;20698;-68
2022/12/23 05:32:02;;;;;;;68.70;23.03;;;9.40;99.90;;;;;;5093117;28;20226;-69
2022/12/23 05:34:29;;;;;;;78.40;24.03;;;9.50;99.90;;;;;;5091216;28;20207;-69
2022/12/23 05:36:56;;;;;;;74.67;23.97;;;9.50;99.90;;;;;;5110405;28;20229;-69
2022/12/23 05:39:23;;;;;;;86.97;24.90;;;9.40;99.90;;;;;;5109369;28;20663;-68
2022/12/23 05:41:49;;;;;;;85.57;24.57;;;9.50;99.90;;;;;;5110282;28;20299;-68
2022/12/23 05:44:16;;;;;;;75.60;22.67;;;9.50;99.90;;;;;;5110387;28;20298;-69
2022/12/23 05:46:43;;;;;;;67.00;22.47;;;9.50;99.90;;;;;;5084284;28;20217;-69
2022/12/23 05:49:09;;;;;;;86.80;22.93;;;9.50;99.90;;;;;;5088291;28;20314;-69
2022/12/23 05:51:36;;;;;;;69.83;20.17;;;9.50;99.90;;;;;;5108075;28;20647;-69
2022/12/23 05:54:03;;;;;;;60.70;20.50;;;9.50;99.90;;;;;;5110111;28;20290;-69
2022/12/23 05:56:30;;;;;;;73.83;22.37;;;9.40;99.90;;;;;;5090358;28;20656;-69
2022/12/23 05:58:56;;;;;;;63.23;21.40;;;9.50;99.90;;;;;;5104100;28;20283;-68
2022/12/23 06:01:23;;;;;;;76.53;23.53;;;9.50;99.90;;;;;;5104228;28;20223;-69
2022/12/23 06:03:50;;;;;;;65.27;21.47;;;9.50;99.90;;;;;;5086814;28;20231;-69
2022/12/23 06:06:17;;;;;;;68.03;21.83;;;9.60;99.90;;;;;;5107615;28;20231;-69
2022/12/23 06:08:43;;;;;;;69.63;22.30;;;9.50;99.90;;;;;;5103505;28;20204;-69
2022/12/23 06:11:11;;;;;;;60.00;21.50;;;9.50;99.90;;;;;;5105589;28;20226;-69
2022/12/23 06:13:38;;;;;;;73.07;23.60;;;9.50;99.90;;;;;;5107517;28;20258;-69
2022/12/23 06:16:05;;;;;;;73.73;23.80;;;9.50;99.90;;;;;;5073772;28;20207;-68
2022/12/23 06:18:32;;;;;;;64.53;22.37;;;9.50;99.90;;;;;;5102973;28;20659;-68
2022/12/23 06:20:59;;;;;;;70.23;22.83;;;9.50;99.90;;;;;;5106262;28;20282;-69
2022/12/23 06:23:25;;;;;;;70.30;22.73;;;9.50;99.90;;;;;;5108360;28;20203;-69
2022/12/23 06:25:59;;;;;;;74.93;25.03;;;9.50;99.90;;;;;;5090185;28;20230;-68
2022/12/23 06:28:28;;;;;;;82.57;24.17;;;9.50;99.90;;;;;;5108492;28;20270;-70
2022/12/23 06:30:56;;;;;;;77.80;23.27;;;9.50;99.90;;;;;;5105107;28;20208;-70
2022/12/23 06:33:23;;;;;;;85.07;24.70;;;9.50;99.90;;;;;;5107608;28;20200;-69
2022/12/23 06:35:50;;;;;;;83.23;23.90;;;9.50;99.90;;;;;;5109127;28;20286;-69
2022/12/23 06:38:17;;;;;;;86.17;25.13;;;9.50;99.90;;;;;;5107561;28;20195;-70
2022/12/23 06:40:43;;;;;;;84.77;24.83;;;9.50;99.90;;;;;;5109025;28;20200;-69
2022/12/23 06:43:12;;;;;;;89.10;26.57;;;9.50;99.90;;;;;;5105448;28;20278;-69
2022/12/23 06:45:39;;;;;;;79.60;25.47;;;9.50;99.90;;;;;;5108125;28;20222;-69
2022/12/23 06:48:06;;;;;;;86.30;25.37;;;9.60;99.90;;;;;;5112302;28;20705;-70
2022/12/23 06:50:33;;;;;;;84.20;25.87;;;9.50;99.90;;;;;;5112587;28;20237;-70
2022/12/23 06:52:59;;;;;;;92.83;26.03;;;9.60;99.90;;;;;;5112237;28;20203;-70
2022/12/23 06:55:26;;;;;;;81.53;24.60;;;9.60;99.90;;;;;;5076249;28;20200;-70
2022/12/23 06:57:53;;;;;;;94.00;24.97;;;9.60;99.90;;;;;;5107737;27;20723;-68
2022/12/23 07:00:20;;;;;;;94.37;24.60;;;9.60;99.90;;;;;;5110864;28;20290;-70
2022/12/23 07:02:46;;;;;;;89.20;26.40;;;9.60;99.90;;;;;;5110459;28;20208;-69
2022/12/23 07:05:16;;;;;;;82.83;24.03;;;9.60;99.90;;;;;;5111550;28;20240;-69
2022/12/23 07:07:43;;;;;;;103.17;25.37;;;9.60;99.90;;;;;;5111006;28;20195;-69
2022/12/23 07:10:10;;;;;;;104.20;24.77;;;9.60;99.90;;;;;;5113336;28;20211;-69
2022/12/23 07:12:38;;;;;;;95.30;24.50;;;9.60;99.90;;;;;;5107404;27;20250;-69
2022/12/23 07:15:06;;;;;;;85.87;24.27;;;9.70;99.90;;;;;;5111444;28;20294;-70
2022/12/23 07:17:32;;;;;;;78.00;22.97;;;9.60;99.90;;;;;;5110280;28;20251;-69
2022/12/23 07:19:59;;;;;;;93.53;28.92;;;9.60;99.90;;;;;;5110524;28;20516;-69
2022/12/23 07:22:26;;;;;;;82.33;23.37;;;9.80;99.90;;;;;;5109940;28;20675;-70
2022/12/23 07:24:53;;;;;;;76.53;22.50;;;9.80;99.90;;;;;;5111165;28;20258;-69
2022/12/23 07:27:19;;;;;;;73.13;21.57;;;9.70;99.90;;;;;;5111539;28;20635;-70
2022/12/23 07:29:46;;;;;;;63.23;20.73;;;9.70;99.90;;;;;;5111013;28;20241;-69
2022/12/23 07:32:13;;;;;;;73.73;19.80;;;9.70;99.90;;;;;;5108874;28;20272;-70
2022/12/23 07:34:44;;;;;;;67.37;19.43;;;9.70;99.90;;;;;;5110355;28;20218;-69
2022/12/23 07:37:11;;;;;;;73.43;20.80;;;9.60;99.90;;;;;;5111608;28;20286;-70
2022/12/23 07:39:37;;;;;;;67.10;19.87;;;9.60;99.90;;;;;;5111165;28;20199;-70
2022/12/23 07:42:04;;;;;;;61.17;19.50;;;9.60;99.90;;;;;;5111166;28;20248;-70
2022/12/23 07:44:51;;;;;;;56.40;18.37;;;9.60;99.90;;;;;;5096385;28;20203;-70
2022/12/23 07:47:17;;;;;;;68.70;20.83;;;9.60;99.90;;;;;;5110428;28;20703;-69
2022/12/23 07:49:44;;;;;;;63.07;20.43;;;9.60;99.90;;;;;;5111721;28;20740;-69
2022/12/23 07:52:11;;;;;;;73.83;21.23;;;9.60;99.90;;;;;;5108486;28;20264;-69
2022/12/23 07:54:37;;;;;;;60.37;18.97;;;9.60;99.90;;;;;;5111347;28;20669;-69
2022/12/23 07:57:04;;;;;;;57.67;18.83;;;9.60;99.90;;;;;;5110898;28;20199;-69
2022/12/23 07:59:31;;;;;;;58.57;20.00;;;9.60;99.90;;;;;;5112338;27;20298;-70
2022/12/23 08:01:57;;;;;;;58.73;19.17;;;9.60;99.90;;;;;;5093801;28;20703;-69
2022/12/23 08:04:24;;;;;;;50.73;17.43;;;9.50;99.90;;;;;;5110404;28;20560;-69
2022/12/23 08:06:51;;;;;;;62.93;20.23;;;9.50;99.90;;;;;;5111736;28;20239;-69
2022/12/23 08:09:18;;;;;;;60.13;19.43;;;9.40;99.90;;;;;;5106360;28;20208;-69
2022/12/23 08:11:45;;;;;;;55.37;18.53;;;9.30;99.90;;;;;;5112032;28;20241;-70
2022/12/23 08:14:14;;;;;;;66.80;20.57;;;9.30;99.90;;;;;;5111364;28;20690;-69
2022/12/23 08:16:44;;;;;;;58.37;19.57;;;9.40;99.90;;;;;;5108467;28;20310;-68
2022/12/23 08:19:11;;;;;;;62.70;20.87;;;9.20;99.90;;;;;;5111536;28;20699;-69
2022/12/23 08:21:37;;;;;;;61.77;21.00;;;9.20;99.90;;;;;;5111875;28;20226;-69
2022/12/23 08:24:04;;;;;;;68.60;21.10;;;9.30;99.90;;;;;;5110765;28;20227;-69
2022/12/23 08:26:32;;;;;;;61.43;21.33;;;9.30;99.90;;;;;;5111688;28;20277;-69
2022/12/23 08:28:59;;;;;;;78.10;22.07;;;9.30;99.90;;;;;;5108434;28;20379;-70
2022/12/23 08:31:30;;;;;;;74.77;22.90;;;9.30;99.90;;;;;;5110593;27;20258;-70
2022/12/23 08:33:59;;;;;;;78.77;23.50;;;9.30;99.90;;;;;;5104448;28;20192;-70
2022/12/23 08:36:34;;;;;;;74.83;22.73;;;9.30;99.90;;;;;;5112188;28;20199;-70
2022/12/23 08:39:05;;;;;;;71.67;22.03;;;9.40;99.90;;;;;;5110229;28;20202;-70
2022/12/23 08:41:36;;;;;;;67.47;21.87;;;9.40;99.90;;;;;;5093536;28;20289;-69
2022/12/23 08:44:03;;;;;;;92.03;23.27;;;9.40;99.90;;;;;;5108859;28;20290;-70
2022/12/23 08:46:30;;;;;;;73.97;22.10;;;9.50;99.90;;;;;;5104170;28;20631;-69
2022/12/23 08:48:57;;;;;;;77.97;23.27;;;9.50;99.90;;;;;;5104455;28;20203;-69
2022/12/23 08:51:24;;;;;;;85.67;24.43;;;9.50;99.90;;;;;;5109429;28;20396;-70
2022/12/23 08:53:55;;;;;;;87.73;23.93;;;9.60;99.90;;;;;;5108107;28;20195;-70
2022/12/23 08:56:32;;;;;;;82.50;24.53;;;9.60;99.90;;;;;;5111288;28;20259;-70
2022/12/23 08:59:00;;;;;;;83.40;22.90;;;9.60;99.90;;;;;;5107495;28;20678;-69
2022/12/23 09:01:30;;;;;;;82.47;23.23;;;9.60;99.90;;;;;;5107983;28;20748;-70
2022/12/23 09:03:57;;;;;;;90.97;24.00;;;9.60;99.90;;;;;;5090336;28;20710;-70
2022/12/23 09:06:30;;;;;;;83.83;24.17;;;9.60;99.90;;;;;;5109791;28;20227;-69
2022/12/23 09:08:58;;;;;;;81.07;23.13;;;9.60;99.90;;;;;;5107031;28;20285;-69
2022/12/23 09:11:28;;;;;;;93.50;24.50;;;9.60;99.90;;;;;;5089574;28;20218;-70
2022/12/23 09:13:59;;;;;;;91.20;24.50;;;9.60;99.90;;;;;;5103134;28;20195;-68
2022/12/23 09:16:28;;;;;;;92.53;26.07;;;9.60;99.90;;;;;;5109392;28;20679;-69
2022/12/23 09:18:57;;;;;;;92.33;25.37;;;9.60;99.90;;;;;;5109437;28;20202;-69
2022/12/23 09:21:24;;;;;;;102.87;26.17;;;9.60;99.90;;;;;;5090107;28;20286;-69
2022/12/23 09:23:51;;;;;;;98.27;26.47;;;9.60;99.90;;;;;;5108172;28;20207;-69
2022/12/23 09:26:24;;;;;;;97.27;25.67;;;9.60;99.90;;;;;;5110733;28;20227;-69
2022/12/23 09:28:51;;;;;;;97.90;26.73;;;9.60;99.90;;;;;;5110098;28;20241;-70
2022/12/23 09:31:19;;;;;;;101.17;27.00;;;9.60;99.90;;;;;;5090453;28;20691;-68
2022/12/23 09:33:48;;;;;;;116.67;28.87;;;9.70;99.90;;;;;;5110354;28;20268;-68
2022/12/23 09:36:16;;;;;;;98.47;27.47;;;9.70;99.90;;;;;;5110189;28;20245;-70
2022/12/23 09:38:42;;;;;;;106.07;27.07;;;9.60;99.90;;;;;;5110283;28;20211;-70
2022/12/23 09:41:28;;;;;;;110.27;26.17;;;9.70;99.90;;;;;;5108789;28;20278;-71
2022/12/23 09:44:22;;;;;;;113.30;28.33;;;9.70;99.90;;;;;;5107020;28;20238;-68
2022/12/23 09:47:05;;;;;;;125.40;28.77;;;9.70;99.90;;;;;;5088491;28;20763;-70
2022/12/23 09:49:33;;;;;;;118.43;27.77;;;9.70;99.90;;;;;;5100700;28;20598;-70
2022/12/23 09:52:04;;;;;;;119.87;28.33;;;9.80;99.90;;;;;;5088904;28;20624;-70
2022/12/23 09:54:57;;;;;;;110.90;28.37;;;9.70;99.90;;;;;;5090222;28;20294;-70
2022/12/23 09:57:35;;;;;;;125.10;28.97;;;9.80;99.90;;;;;;5087225;28;20239;-69
2022/12/23 10:00:12;;;;;;;127.30;29.80;;;9.80;99.90;;;;;;5088229;28;20226;-70
2022/12/23 10:03:17;;;;;;;128.07;29.50;;;9.80;99.90;;;;;;5087439;28;20243;-69
2022/12/23 10:06:11;;;;;;;118.13;28.47;;;9.80;99.90;;;;;;5090598;28;20256;-70
2022/12/23 10:08:47;;;;;;;121.30;28.23;;;9.80;99.90;;;;;;5089822;28;20305;-70
2022/12/23 10:11:22;;;;;;;112.73;27.90;;;9.80;99.90;;;;;;5067188;28;20581;-70
2022/12/23 10:13:57;;;;;;;133.97;30.63;;;9.80;99.90;;;;;;5087985;28;20203;-70
2022/12/23 10:16:31;;;;;;;129.80;31.80;;;9.80;99.90;;;;;;5089937;28;20626;-69
2022/12/23 10:19:03;;;;;;;118.00;29.87;;;9.80;99.90;;;;;;5091109;28;20199;-70
2022/12/23 10:21:49;;;;;;;117.80;33.00;;;9.80;99.90;;;;;;5094791;28;20290;-69
2022/12/23 10:24:19;;;;;;;119.03;30.50;;;9.80;99.90;;;;;;5091491;28;20664;-70
2022/12/23 10:26:55;;;;;;;125.70;30.93;;;9.80;99.90;;;;;;5093538;28;20219;-69
2022/12/23 10:29:29;;;;;;;121.93;32.73;;;9.80;99.90;;;;;;5094022;28;20195;-69
2022/12/23 10:32:14;;;;;;;133.80;32.63;;;9.80;99.90;;;;;;5091744;28;20307;-69
2022/12/23 10:35:07;;;;;;;129.53;32.53;;;9.80;99.90;;;;;;5093885;28;20261;-69
2022/12/23 10:38:22;;;;;;;128.53;31.70;;;9.80;99.90;;;;;;5071940;28;20723;-70
2022/12/23 10:41:08;;;;;;;127.93;30.90;;;9.80;99.90;;;;;;5089728;28;20690;-68
2022/12/23 10:44:10;;;;;;;131.13;31.80;;;9.80;99.90;;;;;;5095510;28;20208;-70
2022/12/23 10:46:59;;;;;;;127.50;30.50;;;9.80;99.90;;;;;;5092689;28;20249;-69
2022/12/23 10:49:47;;;;;;;140.43;32.37;;;9.80;99.90;;;;;;5090844;28;20246;-70
2022/12/23 10:52:19;;;;;;;130.80;33.53;;;9.80;99.90;;;;;;5092049;28;20228;-69
2022/12/23 10:54:47;;;;;;;145.97;33.23;;;9.80;99.90;;;;;;5089987;28;20591;-69
2022/12/23 10:57:15;;;;;;;134.70;32.83;;;9.90;99.90;;;;;;5091204;28;20219;-69
2022/12/23 10:59:42;;;;;;;137.40;33.93;;;9.90;99.90;;;;;;5091360;28;20554;-70
2022/12/23 11:02:12;;;;;;;124.17;34.77;;;9.90;99.90;;;;;;5092441;28;20279;-69
2022/12/23 11:04:47;;;;;;;128.00;32.10;;;9.90;99.90;;;;;;5092726;28;20208;-70
2022/12/23 11:07:19;;;;;;;138.73;33.93;;;9.90;99.90;;;;;;5091420;28;20336;-69
2022/12/23 11:10:15;;;;;;;128.33;31.13;;;9.90;99.90;;;;;;5073529;28;20648;-69
2022/12/23 11:12:48;;;;;;;139.90;33.60;;;9.90;99.90;;;;;;5091552;28;20203;-70
2022/12/23 11:15:35;;;;;;;119.10;30.90;;;9.90;99.90;;;;;;5093106;28;20228;-69
2022/12/23 11:18:15;;;;;;;109.30;29.50;;;10.00;99.90;;;;;;5083496;28;20681;-70
2022/12/23 11:21:02;;;;;;;126.97;31.50;;;10.00;99.90;;;;;;5089955;28;20565;-70
2022/12/23 11:23:34;;;;;;;120.97;30.80;;;10.00;99.90;;;;;;5091593;28;20656;-70
2022/12/23 11:26:04;;;;;;;123.77;29.10;;;10.00;99.90;;;;;;5089955;28;20228;-70
2022/12/23 11:28:33;;;;;;;118.20;30.00;;;10.10;99.90;;;;;;5086591;28;20238;-70
2022/12/23 11:31:10;;;;;;;107.80;28.53;;;10.10;99.90;;;;;;5087196;28;20285;-69
2022/12/23 11:33:44;;;;;;;113.10;29.30;;;10.00;99.90;;;;;;5091540;28;20188;-71
2022/12/23 11:36:22;;;;;;;103.83;26.97;;;10.10;99.90;;;;;;5087867;28;20615;-70
2022/12/23 11:39:12;;;;;;;107.23;25.50;;;10.10;99.90;;;;;;5089637;28;20200;-70
2022/12/23 11:41:46;;;;;;;87.93;24.10;;;10.10;99.90;;;;;;5076725;28;20236;-70
2022/12/23 11:44:24;;;;;;;89.77;23.80;;;10.00;99.90;;;;;;5085194;28;20204;-69
2022/12/23 11:46:51;;;;;;;71.37;22.53;;;10.00;99.90;;;;;;5082598;28;20331;-69
2022/12/23 11:49:32;;;;;;;83.53;23.80;;;10.00;99.90;;;;;;5089410;28;20334;-70
2022/12/23 11:52:12;;;;;;;90.27;24.63;;;10.00;99.90;;;;;;5087856;28;20313;-70
2022/12/23 11:54:39;;;;;;;77.50;21.83;;;10.10;99.90;;;;;;5069387;28;20609;-70
2022/12/23 11:57:15;;;;;;;77.17;21.83;;;10.10;99.90;;;;;;5088801;28;20215;-70
2022/12/23 11:59:47;;;;;;;73.27;19.50;;;10.00;99.90;;;;;;5091974;28;20192;-69
2022/12/23 12:02:20;;;;;;;70.30;20.53;;;10.10;99.90;;;;;;5081611;28;20208;-70
2022/12/23 12:05:01;;;;;;;76.73;19.27;;;10.10;99.90;;;;;;5076973;28;20211;-70
2022/12/23 12:07:29;;;;;;;62.53;19.03;;;10.10;99.90;;;;;;5085249;28;20215;-70
2022/12/23 12:09:58;;;;;;;66.93;17.93;;;10.10;99.90;;;;;;5072692;28;20204;-70
2022/12/23 12:12:28;;;;;;;57.00;15.93;;;10.10;99.90;;;;;;5090121;28;20664;-70
2022/12/23 12:14:57;;;;;;;61.40;17.43;;;10.10;99.90;;;;;;5088436;28;20235;-70
2022/12/23 12:17:39;;;;;;;59.13;17.50;;;10.10;99.90;;;;;;5092048;28;20281;-70
2022/12/23 12:20:39;;;;;;;57.10;16.37;;;10.10;99.90;;;;;;5087179;28;20207;-70
2022/12/23 12:23:23;;;;;;;54.23;16.07;;;10.10;99.90;;;;;;5089850;28;20199;-70
2022/12/23 12:26:00;;;;;;;54.97;16.43;;;10.00;99.90;;;;;;5066392;28;20211;-70
2022/12/23 12:28:47;;;;;;;59.77;17.27;;;10.00;99.90;;;;;;5090211;28;20200;-69
2022/12/23 12:31:31;;;;;;;60.37;17.07;;;10.00;99.90;;;;;;5071076;28;20250;-70
2022/12/23 12:34:23;;;;;;;61.23;16.23;;;10.00;99.90;;;;;;5091306;28;20208;-70
2022/12/23 12:36:58;;;;;;;53.77;17.33;;;10.00;99.90;;;;;;5039562;28;20533;-70
2022/12/23 12:39:39;;;;;;;60.83;17.97;;;10.00;99.90;;;;;;5089847;28;20578;-69
2022/12/23 12:42:20;;;;;;;69.17;18.30;;;10.00;99.90;;;;;;5091061;28;20214;-69
2022/12/23 12:45:08;;;;;;;75.47;19.37;;;10.00;99.90;;;;;;5089809;28;20291;-69
2022/12/23 12:47:42;;;;;;;70.63;19.90;;;10.10;99.90;;;;;;5086209;28;20314;-69
2022/12/23 12:50:33;;;;;;;82.03;21.13;;;10.10;99.90;;;;;;5078604;28;20228;-70
2022/12/23 12:53:10;;;;;;;86.03;21.67;;;10.10;99.90;;;;;;5097831;28;20618;-69
2022/12/23 12:55:45;;;;;;;95.03;21.90;;;10.10;99.90;;;;;;5075368;28;20717;-69
2022/12/23 12:58:18;;;;;;;94.87;22.40;;;10.10;99.90;;;;;;5094385;28;20286;-69
2022/12/23 13:00:50;;;;;;;99.00;22.27;;;10.10;99.90;;;;;;5098405;28;20749;-70
2022/12/23 13:03:40;;;;;;;100.43;22.37;;;10.10;99.90;;;;;;5076111;28;20290;-70
2022/12/23 13:06:10;;;;;;;111.47;23.50;;;10.10;99.90;;;;;;5084783;28;20294;-70
2022/12/23 13:09:06;;;;;;;99.07;23.03;;;10.10;99.90;;;;;;5097325;28;20287;-70
2022/12/23 13:11:57;;;;;;;100.87;25.37;;;10.10;99.90;;;;;;5076271;28;20204;-70
2022/12/23 13:14:46;;;;;;;118.60;27.77;;;10.00;99.90;;;;;;5079971;28;20527;-70
2022/12/23 13:17:28;;;;;;;101.20;25.60;;;10.10;99.90;;;;;;5046163;28;20243;-70
2022/12/23 13:20:19;;;;;;;112.97;24.63;;;10.10;99.90;;;;;;5078737;28;20305;-70
2022/12/23 13:22:52;;;;;;;104.97;23.13;;;10.10;99.90;;;;;;5096447;28;20290;-70